sensor_id;sensor_type;location;lat;lon;timestamp;temperature;humidity
32201;DHT22;18701;45.588;5.288;2022-07-15T00:00:07;26.60;88.60
32201;DHT22;18701;45.588;5.288;2022-07-15T00:02:33;26.50;88.60
32201;DHT22;18701;45.588;5.288;2022-07-15T00:04:59;26.50;88.50
32201;DHT22;18701;45.588;5.288;2022-07-15T00:07:25;26.60;88.50
32201;DHT22;18701;45.588;5.288;2022-07-15T00:09:50;26.70;88.80
32201;DHT22;18701;45.588;5.288;2022-07-15T00:12:35;26.70;89.10
32201;DHT22;18701;45.588;5.288;2022-07-15T00:15:01;26.60;88.80
32201;DHT22;18701;45.588;5.288;2022-07-15T00:17:27;26.50;89.20
32201;DHT22;18701;45.588;5.288;2022-07-15T00:19:53;26.30;89.10
32201;DHT22;18701;45.588;5.288;2022-07-15T00:22:19;26.20;89.80
32201;DHT22;18701;45.588;5.288;2022-07-15T00:24:44;26.20;89.80
32201;DHT22;18701;45.588;5.288;2022-07-15T00:27:10;26.30;89.80
32201;DHT22;18701;45.588;5.288;2022-07-15T00:29:36;26.20;89.90
32201;DHT22;18701;45.588;5.288;2022-07-15T00:32:02;26.20;90.00
32201;DHT22;18701;45.588;5.288;2022-07-15T00:34:28;26.10;90.10
32201;DHT22;18701;45.588;5.288;2022-07-15T00:36:54;26.10;90.20
32201;DHT22;18701;45.588;5.288;2022-07-15T00:39:19;26.00;90.30
32201;DHT22;18701;45.588;5.288;2022-07-15T00:41:45;26.00;90.30
32201;DHT22;18701;45.588;5.288;2022-07-15T00:44:11;25.90;90.20
32201;DHT22;18701;45.588;5.288;2022-07-15T00:46:37;26.00;90.50
32201;DHT22;18701;45.588;5.288;2022-07-15T00:49:04;25.80;90.30
32201;DHT22;18701;45.588;5.288;2022-07-15T00:51:43;25.70;90.50
32201;DHT22;18701;45.588;5.288;2022-07-15T00:54:10;25.80;90.50
32201;DHT22;18701;45.588;5.288;2022-07-15T00:56:40;25.90;90.50
32201;DHT22;18701;45.588;5.288;2022-07-15T00:59:07;25.70;90.60
32201;DHT22;18701;45.588;5.288;2022-07-15T01:01:34;25.60;90.70
32201;DHT22;18701;45.588;5.288;2022-07-15T01:04:04;25.70;90.50
32201;DHT22;18701;45.588;5.288;2022-07-15T01:06:30;25.60;90.70
32201;DHT22;18701;45.588;5.288;2022-07-15T01:08:56;25.60;90.60
32201;DHT22;18701;45.588;5.288;2022-07-15T01:11:22;25.60;90.50
32201;DHT22;18701;45.588;5.288;2022-07-15T01:13:48;25.50;90.70
32201;DHT22;18701;45.588;5.288;2022-07-15T01:16:13;25.50;90.80
32201;DHT22;18701;45.588;5.288;2022-07-15T01:18:40;25.50;90.80
32201;DHT22;18701;45.588;5.288;2022-07-15T01:21:06;25.50;90.80
32201;DHT22;18701;45.588;5.288;2022-07-15T01:23:31;25.60;90.70
32201;DHT22;18701;45.588;5.288;2022-07-15T01:25:57;25.50;90.80
32201;DHT22;18701;45.588;5.288;2022-07-15T01:28:25;25.60;90.80
32201;DHT22;18701;45.588;5.288;2022-07-15T01:30:51;25.50;90.90
32201;DHT22;18701;45.588;5.288;2022-07-15T01:33:17;25.40;91.00
32201;DHT22;18701;45.588;5.288;2022-07-15T01:35:42;25.30;91.10
32201;DHT22;18701;45.588;5.288;2022-07-15T01:38:09;25.20;91.10
32201;DHT22;18701;45.588;5.288;2022-07-15T01:40:34;25.20;91.20
32201;DHT22;18701;45.588;5.288;2022-07-15T01:43:00;25.00;91.30
32201;DHT22;18701;45.588;5.288;2022-07-15T01:45:25;25.10;91.40
32201;DHT22;18701;45.588;5.288;2022-07-15T01:47:51;24.80;91.50
32201;DHT22;18701;45.588;5.288;2022-07-15T01:50:18;24.90;91.50
32201;DHT22;18701;45.588;5.288;2022-07-15T01:52:44;24.90;91.60
32201;DHT22;18701;45.588;5.288;2022-07-15T01:55:10;25.00;91.60
32201;DHT22;18701;45.588;5.288;2022-07-15T01:57:36;25.00;91.70
32201;DHT22;18701;45.588;5.288;2022-07-15T02:00:03;24.90;91.60
32201;DHT22;18701;45.588;5.288;2022-07-15T02:02:29;24.80;91.60
32201;DHT22;18701;45.588;5.288;2022-07-15T02:04:55;24.80;91.70
32201;DHT22;18701;45.588;5.288;2022-07-15T02:07:21;24.80;91.90
32201;DHT22;18701;45.588;5.288;2022-07-15T02:09:47;24.90;91.90
32201;DHT22;18701;45.588;5.288;2022-07-15T02:12:12;24.90;91.80
32201;DHT22;18701;45.588;5.288;2022-07-15T02:14:38;24.80;91.90
32201;DHT22;18701;45.588;5.288;2022-07-15T02:17:04;24.70;92.00
32201;DHT22;18701;45.588;5.288;2022-07-15T02:19:29;24.70;91.90
32201;DHT22;18701;45.588;5.288;2022-07-15T02:21:55;24.60;92.10
32201;DHT22;18701;45.588;5.288;2022-07-15T02:24:21;24.60;92.10
32201;DHT22;18701;45.588;5.288;2022-07-15T02:26:47;24.70;92.20
32201;DHT22;18701;45.588;5.288;2022-07-15T02:29:14;24.50;92.10
32201;DHT22;18701;45.588;5.288;2022-07-15T02:31:40;24.40;92.30
32201;DHT22;18701;45.588;5.288;2022-07-15T02:34:06;24.50;92.40
32201;DHT22;18701;45.588;5.288;2022-07-15T02:36:31;24.40;92.60
32201;DHT22;18701;45.588;5.288;2022-07-15T02:38:57;24.40;92.50
32201;DHT22;18701;45.588;5.288;2022-07-15T02:41:26;24.20;92.60
32201;DHT22;18701;45.588;5.288;2022-07-15T02:43:51;24.30;92.60
32201;DHT22;18701;45.588;5.288;2022-07-15T02:46:17;24.30;92.60
32201;DHT22;18701;45.588;5.288;2022-07-15T02:48:43;24.30;92.60
32201;DHT22;18701;45.588;5.288;2022-07-15T02:51:09;24.40;92.60
32201;DHT22;18701;45.588;5.288;2022-07-15T02:53:35;24.40;92.70
32201;DHT22;18701;45.588;5.288;2022-07-15T02:56:01;24.40;92.60
32201;DHT22;18701;45.588;5.288;2022-07-15T02:58:28;24.30;92.70
32201;DHT22;18701;45.588;5.288;2022-07-15T03:00:56;24.20;92.80
32201;DHT22;18701;45.588;5.288;2022-07-15T03:03:25;24.40;92.60
32201;DHT22;18701;45.588;5.288;2022-07-15T03:05:56;24.10;92.90
32201;DHT22;18701;45.588;5.288;2022-07-15T03:08:25;24.30;92.90
32201;DHT22;18701;45.588;5.288;2022-07-15T03:10:51;24.20;92.80
32201;DHT22;18701;45.588;5.288;2022-07-15T03:13:16;24.30;92.80
32201;DHT22;18701;45.588;5.288;2022-07-15T03:15:42;24.30;93.00
32201;DHT22;18701;45.588;5.288;2022-07-15T03:18:08;24.10;92.90
32201;DHT22;18701;45.588;5.288;2022-07-15T03:20:33;24.10;93.00
32201;DHT22;18701;45.588;5.288;2022-07-15T03:22:59;24.10;93.00
32201;DHT22;18701;45.588;5.288;2022-07-15T03:25:25;24.10;93.30
32201;DHT22;18701;45.588;5.288;2022-07-15T03:27:50;23.90;93.30
32201;DHT22;18701;45.588;5.288;2022-07-15T03:30:17;23.80;93.30
32201;DHT22;18701;45.588;5.288;2022-07-15T03:32:43;23.90;93.40
32201;DHT22;18701;45.588;5.288;2022-07-15T03:35:08;23.90;93.30
32201;DHT22;18701;45.588;5.288;2022-07-15T03:37:34;23.90;93.40
32201;DHT22;18701;45.588;5.288;2022-07-15T03:40:00;23.90;93.30
32201;DHT22;18701;45.588;5.288;2022-07-15T03:42:26;23.80;93.50
32201;DHT22;18701;45.588;5.288;2022-07-15T03:44:52;23.70;93.60
32201;DHT22;18701;45.588;5.288;2022-07-15T03:47:18;23.80;93.30
32201;DHT22;18701;45.588;5.288;2022-07-15T03:49:43;23.90;93.50
32201;DHT22;18701;45.588;5.288;2022-07-15T03:52:09;23.90;93.40
32201;DHT22;18701;45.588;5.288;2022-07-15T03:54:34;23.80;93.50
32201;DHT22;18701;45.588;5.288;2022-07-15T03:57:00;23.80;93.70
32201;DHT22;18701;45.588;5.288;2022-07-15T03:59:26;23.80;93.60
32201;DHT22;18701;45.588;5.288;2022-07-15T04:01:51;23.70;93.90
32201;DHT22;18701;45.588;5.288;2022-07-15T04:04:18;23.70;93.60
32201;DHT22;18701;45.588;5.288;2022-07-15T04:06:43;23.70;93.80
32201;DHT22;18701;45.588;5.288;2022-07-15T04:09:09;23.70;93.60
32201;DHT22;18701;45.588;5.288;2022-07-15T04:11:35;23.40;93.90
32201;DHT22;18701;45.588;5.288;2022-07-15T04:14:01;23.10;94.20
32201;DHT22;18701;45.588;5.288;2022-07-15T04:16:27;23.20;94.40
32201;DHT22;18701;45.588;5.288;2022-07-15T04:18:54;23.30;94.30
32201;DHT22;18701;45.588;5.288;2022-07-15T04:21:19;23.40;94.30
32201;DHT22;18701;45.588;5.288;2022-07-15T04:23:45;23.30;94.40
32201;DHT22;18701;45.588;5.288;2022-07-15T04:26:11;23.40;94.50
32201;DHT22;18701;45.588;5.288;2022-07-15T04:28:36;23.40;94.60
32201;DHT22;18701;45.588;5.288;2022-07-15T04:31:02;23.50;94.60
32201;DHT22;18701;45.588;5.288;2022-07-15T04:33:27;23.50;94.30
32201;DHT22;18701;45.588;5.288;2022-07-15T04:35:53;23.40;94.40
32201;DHT22;18701;45.588;5.288;2022-07-15T04:38:20;23.40;94.40
32201;DHT22;18701;45.588;5.288;2022-07-15T04:40:46;23.40;94.50
32201;DHT22;18701;45.588;5.288;2022-07-15T04:43:12;23.30;94.60
32201;DHT22;18701;45.588;5.288;2022-07-15T04:45:37;23.30;94.60
32201;DHT22;18701;45.588;5.288;2022-07-15T04:48:04;23.30;94.70
32201;DHT22;18701;45.588;5.288;2022-07-15T04:50:49;23.50;94.60
32201;DHT22;18701;45.588;5.288;2022-07-15T04:53:18;23.40;94.60
32201;DHT22;18701;45.588;5.288;2022-07-15T04:55:44;23.30;94.70
32201;DHT22;18701;45.588;5.288;2022-07-15T04:58:10;23.50;94.60
32201;DHT22;18701;45.588;5.288;2022-07-15T05:00:37;23.50;94.70
32201;DHT22;18701;45.588;5.288;2022-07-15T05:03:03;23.40;94.70
32201;DHT22;18701;45.588;5.288;2022-07-15T05:05:30;23.30;94.80
32201;DHT22;18701;45.588;5.288;2022-07-15T05:07:56;23.30;95.10
32201;DHT22;18701;45.588;5.288;2022-07-15T05:10:21;23.40;94.80
32201;DHT22;18701;45.588;5.288;2022-07-15T05:12:47;23.30;95.00
32201;DHT22;18701;45.588;5.288;2022-07-15T05:15:12;23.30;95.10
32201;DHT22;18701;45.588;5.288;2022-07-15T05:17:39;23.30;95.10
32201;DHT22;18701;45.588;5.288;2022-07-15T05:20:06;23.10;95.20
32201;DHT22;18701;45.588;5.288;2022-07-15T05:22:32;23.40;95.10
32201;DHT22;18701;45.588;5.288;2022-07-15T05:24:58;23.30;95.00
32201;DHT22;18701;45.588;5.288;2022-07-15T05:27:26;23.40;95.10
32201;DHT22;18701;45.588;5.288;2022-07-15T05:29:51;23.50;95.20
32201;DHT22;18701;45.588;5.288;2022-07-15T05:32:17;23.50;95.40
32201;DHT22;18701;45.588;5.288;2022-07-15T05:34:42;23.50;95.30
32201;DHT22;18701;45.588;5.288;2022-07-15T05:37:08;23.60;95.20
32201;DHT22;18701;45.588;5.288;2022-07-15T05:39:34;23.70;94.90
32201;DHT22;18701;45.588;5.288;2022-07-15T05:42:00;23.70;95.10
32201;DHT22;18701;45.588;5.288;2022-07-15T05:44:26;23.70;95.30
32201;DHT22;18701;45.588;5.288;2022-07-15T05:46:51;23.60;95.30
32201;DHT22;18701;45.588;5.288;2022-07-15T05:49:18;23.70;95.50
32201;DHT22;18701;45.588;5.288;2022-07-15T05:51:44;23.80;95.30
32201;DHT22;18701;45.588;5.288;2022-07-15T05:54:10;23.70;95.10
32201;DHT22;18701;45.588;5.288;2022-07-15T05:56:38;23.40;95.40
32201;DHT22;18701;45.588;5.288;2022-07-15T05:59:04;23.60;94.80
32201;DHT22;18701;45.588;5.288;2022-07-15T06:01:30;23.40;94.80
32201;DHT22;18701;45.588;5.288;2022-07-15T06:03:55;23.40;94.40
32201;DHT22;18701;45.588;5.288;2022-07-15T06:06:21;23.50;94.50
32201;DHT22;18701;45.588;5.288;2022-07-15T06:08:47;23.60;94.40
32201;DHT22;18701;45.588;5.288;2022-07-15T06:11:12;23.80;93.90
32201;DHT22;18701;45.588;5.288;2022-07-15T06:13:39;23.80;93.70
32201;DHT22;18701;45.588;5.288;2022-07-15T06:16:06;23.50;93.90
32201;DHT22;18701;45.588;5.288;2022-07-15T06:18:32;23.40;94.20
32201;DHT22;18701;45.588;5.288;2022-07-15T06:20:57;23.50;94.30
32201;DHT22;18701;45.588;5.288;2022-07-15T06:23:25;23.40;94.50
32201;DHT22;18701;45.588;5.288;2022-07-15T06:25:51;23.30;94.50
32201;DHT22;18701;45.588;5.288;2022-07-15T06:28:16;23.40;94.60
32201;DHT22;18701;45.588;5.288;2022-07-15T06:30:42;23.60;94.50
32201;DHT22;18701;45.588;5.288;2022-07-15T06:33:07;23.80;94.40
32201;DHT22;18701;45.588;5.288;2022-07-15T06:35:34;23.40;94.40
32201;DHT22;18701;45.588;5.288;2022-07-15T06:37:59;23.10;94.90
32201;DHT22;18701;45.588;5.288;2022-07-15T06:40:25;23.40;94.60
32201;DHT22;18701;45.588;5.288;2022-07-15T06:42:51;23.50;94.40
32201;DHT22;18701;45.588;5.288;2022-07-15T06:45:16;23.50;94.50
32201;DHT22;18701;45.588;5.288;2022-07-15T06:47:42;23.60;94.60
32201;DHT22;18701;45.588;5.288;2022-07-15T06:50:09;23.70;94.60
32201;DHT22;18701;45.588;5.288;2022-07-15T06:52:35;23.60;94.30
32201;DHT22;18701;45.588;5.288;2022-07-15T06:55:01;23.20;94.80
32201;DHT22;18701;45.588;5.288;2022-07-15T06:57:27;23.40;94.90
32201;DHT22;18701;45.588;5.288;2022-07-15T06:59:54;23.60;95.10
32201;DHT22;18701;45.588;5.288;2022-07-15T07:02:20;23.50;94.80
32201;DHT22;18701;45.588;5.288;2022-07-15T07:04:45;23.70;95.10
32201;DHT22;18701;45.588;5.288;2022-07-15T07:07:11;23.90;94.80
32201;DHT22;18701;45.588;5.288;2022-07-15T07:09:37;24.10;94.70
32201;DHT22;18701;45.588;5.288;2022-07-15T07:12:03;24.10;94.70
32201;DHT22;18701;45.588;5.288;2022-07-15T07:14:28;24.20;94.60
32201;DHT22;18701;45.588;5.288;2022-07-15T07:16:54;24.20;94.40
32201;DHT22;18701;45.588;5.288;2022-07-15T07:19:20;24.20;94.20
32201;DHT22;18701;45.588;5.288;2022-07-15T07:21:45;24.20;94.40
32201;DHT22;18701;45.588;5.288;2022-07-15T07:24:11;24.40;94.70
32201;DHT22;18701;45.588;5.288;2022-07-15T07:26:37;24.40;94.40
32201;DHT22;18701;45.588;5.288;2022-07-15T07:29:03;24.50;94.30
32201;DHT22;18701;45.588;5.288;2022-07-15T07:31:29;24.60;94.20
32201;DHT22;18701;45.588;5.288;2022-07-15T07:33:58;24.60;94.20
32201;DHT22;18701;45.588;5.288;2022-07-15T07:36:25;24.60;94.20
32201;DHT22;18701;45.588;5.288;2022-07-15T07:38:51;24.70;94.40
32201;DHT22;18701;45.588;5.288;2022-07-15T07:41:17;24.80;94.20
32201;DHT22;18701;45.588;5.288;2022-07-15T07:43:42;24.80;94.10
32201;DHT22;18701;45.588;5.288;2022-07-15T07:46:10;24.60;94.30
32201;DHT22;18701;45.588;5.288;2022-07-15T07:48:37;24.90;94.00
32201;DHT22;18701;45.588;5.288;2022-07-15T07:51:03;25.10;94.00
32201;DHT22;18701;45.588;5.288;2022-07-15T07:53:29;25.20;93.70
32201;DHT22;18701;45.588;5.288;2022-07-15T07:55:54;25.10;93.70
32201;DHT22;18701;45.588;5.288;2022-07-15T07:58:20;25.00;93.70
32201;DHT22;18701;45.588;5.288;2022-07-15T08:00:46;25.00;94.00
32201;DHT22;18701;45.588;5.288;2022-07-15T08:03:11;25.00;93.90
32201;DHT22;18701;45.588;5.288;2022-07-15T08:05:37;25.20;93.90
32201;DHT22;18701;45.588;5.288;2022-07-15T08:08:13;25.10;93.90
32201;DHT22;18701;45.588;5.288;2022-07-15T08:10:41;25.20;94.30
32201;DHT22;18701;45.588;5.288;2022-07-15T08:13:07;25.30;93.40
32201;DHT22;18701;45.588;5.288;2022-07-15T08:15:33;25.50;93.50
32201;DHT22;18701;45.588;5.288;2022-07-15T08:17:59;25.50;93.20
32201;DHT22;18701;45.588;5.288;2022-07-15T08:20:25;25.60;93.70
32201;DHT22;18701;45.588;5.288;2022-07-15T08:22:51;25.50;93.60
32201;DHT22;18701;45.588;5.288;2022-07-15T08:25:27;25.60;94.00
32201;DHT22;18701;45.588;5.288;2022-07-15T08:27:56;25.70;93.10
32201;DHT22;18701;45.588;5.288;2022-07-15T08:30:23;25.70;93.70
32201;DHT22;18701;45.588;5.288;2022-07-15T08:32:49;25.70;93.20
32201;DHT22;18701;45.588;5.288;2022-07-15T08:35:14;25.90;93.50
32201;DHT22;18701;45.588;5.288;2022-07-15T08:37:40;25.90;93.40
32201;DHT22;18701;45.588;5.288;2022-07-15T08:40:06;26.10;93.20
32201;DHT22;18701;45.588;5.288;2022-07-15T08:42:35;26.40;93.00
32201;DHT22;18701;45.588;5.288;2022-07-15T08:45:01;26.30;93.00
32201;DHT22;18701;45.588;5.288;2022-07-15T08:47:30;26.30;92.60
32201;DHT22;18701;45.588;5.288;2022-07-15T08:49:57;26.50;92.40
32201;DHT22;18701;45.588;5.288;2022-07-15T08:52:26;26.70;92.30
32201;DHT22;18701;45.588;5.288;2022-07-15T08:54:54;26.60;92.60
32201;DHT22;18701;45.588;5.288;2022-07-15T08:57:20;26.80;92.30
32201;DHT22;18701;45.588;5.288;2022-07-15T08:59:46;27.00;92.40
32201;DHT22;18701;45.588;5.288;2022-07-15T09:02:17;27.00;92.10
32201;DHT22;18701;45.588;5.288;2022-07-15T09:08:04;27.60;92.40
32201;DHT22;18701;45.588;5.288;2022-07-15T09:10:58;27.40;91.00
32201;DHT22;18701;45.588;5.288;2022-07-15T09:13:38;27.70;91.70
32201;DHT22;18701;45.588;5.288;2022-07-15T09:16:10;27.60;90.90
32201;DHT22;18701;45.588;5.288;2022-07-15T09:18:38;27.70;91.10
32201;DHT22;18701;45.588;5.288;2022-07-15T09:21:18;27.70;90.90
32201;DHT22;18701;45.588;5.288;2022-07-15T09:23:45;27.80;90.80
32201;DHT22;18701;45.588;5.288;2022-07-15T09:26:31;28.10;91.00
32201;DHT22;18701;45.588;5.288;2022-07-15T09:29:03;28.00;90.00
32201;DHT22;18701;45.588;5.288;2022-07-15T09:31:55;28.20;89.90
32201;DHT22;18701;45.588;5.288;2022-07-15T09:35:02;27.90;89.40
32201;DHT22;18701;45.588;5.288;2022-07-15T09:37:28;28.20;89.60
32201;DHT22;18701;45.588;5.288;2022-07-15T09:39:56;28.40;89.90
32201;DHT22;18701;45.588;5.288;2022-07-15T09:42:22;28.40;89.20
32201;DHT22;18701;45.588;5.288;2022-07-15T09:44:48;28.50;89.10
32201;DHT22;18701;45.588;5.288;2022-07-15T09:47:18;28.40;89.20
32201;DHT22;18701;45.588;5.288;2022-07-15T09:49:44;28.60;90.00
32201;DHT22;18701;45.588;5.288;2022-07-15T09:52:12;28.90;88.30
32201;DHT22;18701;45.588;5.288;2022-07-15T09:54:47;28.80;87.70
32201;DHT22;18701;45.588;5.288;2022-07-15T09:57:14;28.70;87.10
32201;DHT22;18701;45.588;5.288;2022-07-15T09:59:46;28.90;87.40
32201;DHT22;18701;45.588;5.288;2022-07-15T10:02:13;29.00;87.50
32201;DHT22;18701;45.588;5.288;2022-07-15T10:04:39;29.20;88.20
32201;DHT22;18701;45.588;5.288;2022-07-15T10:07:06;29.30;87.30
32201;DHT22;18701;45.588;5.288;2022-07-15T10:09:34;29.20;86.90
32201;DHT22;18701;45.588;5.288;2022-07-15T10:12:11;29.40;87.10
32201;DHT22;18701;45.588;5.288;2022-07-15T10:18:16;29.70;86.20
32201;DHT22;18701;45.588;5.288;2022-07-15T10:20:52;30.00;86.80
32201;DHT22;18701;45.588;5.288;2022-07-15T10:29:03;29.80;83.50
32201;DHT22;18701;45.588;5.288;2022-07-15T10:31:31;29.80;83.60
32201;DHT22;18701;45.588;5.288;2022-07-15T10:39:15;30.50;82.50
32201;DHT22;18701;45.588;5.288;2022-07-15T10:44:13;30.70;84.20
32201;DHT22;18701;45.588;5.288;2022-07-15T10:46:38;30.80;81.50
32201;DHT22;18701;45.588;5.288;2022-07-15T10:54:03;30.80;82.20
32201;DHT22;18701;45.588;5.288;2022-07-15T10:56:31;31.00;81.00
32201;DHT22;18701;45.588;5.288;2022-07-15T11:01:44;31.10;78.80
32201;DHT22;18701;45.588;5.288;2022-07-15T11:04:17;31.00;78.50
32201;DHT22;18701;45.588;5.288;2022-07-15T11:12:11;31.60;80.10
32201;DHT22;18701;45.588;5.288;2022-07-15T11:14:51;31.50;79.50
32201;DHT22;18701;45.588;5.288;2022-07-15T11:19:56;31.70;79.20
32201;DHT22;18701;45.588;5.288;2022-07-15T11:22:24;31.90;77.30
32201;DHT22;18701;45.588;5.288;2022-07-15T11:24:50;31.90;77.60
32201;DHT22;18701;45.588;5.288;2022-07-15T11:27:16;32.20;78.30
32201;DHT22;18701;45.588;5.288;2022-07-15T11:29:50;32.20;78.00
32201;DHT22;18701;45.588;5.288;2022-07-15T11:32:18;32.40;77.70
32201;DHT22;18701;45.588;5.288;2022-07-15T11:34:46;32.20;75.80
32201;DHT22;18701;45.588;5.288;2022-07-15T11:37:13;32.40;75.40
32201;DHT22;18701;45.588;5.288;2022-07-15T11:39:46;32.70;76.50
32201;DHT22;18701;45.588;5.288;2022-07-15T11:42:23;32.50;75.90
32201;DHT22;18701;45.588;5.288;2022-07-15T11:45:09;32.50;75.80
32201;DHT22;18701;45.588;5.288;2022-07-15T11:47:35;32.10;75.90
32201;DHT22;18701;45.588;5.288;2022-07-15T11:50:04;32.00;75.70
32201;DHT22;18701;45.588;5.288;2022-07-15T11:52:30;32.10;76.40
32201;DHT22;18701;45.588;5.288;2022-07-15T11:54:56;32.30;77.00
32201;DHT22;18701;45.588;5.288;2022-07-15T11:57:22;32.80;76.80
32201;DHT22;18701;45.588;5.288;2022-07-15T11:59:56;32.70;75.90
32201;DHT22;18701;45.588;5.288;2022-07-15T12:02:26;32.70;75.80
32201;DHT22;18701;45.588;5.288;2022-07-15T12:05:02;32.20;73.80
32201;DHT22;18701;45.588;5.288;2022-07-15T12:07:41;32.40;73.50
32201;DHT22;18701;45.588;5.288;2022-07-15T12:10:08;32.40;73.40
32201;DHT22;18701;45.588;5.288;2022-07-15T12:12:34;32.80;73.50
32201;DHT22;18701;45.588;5.288;2022-07-15T12:15:00;32.70;73.30
32201;DHT22;18701;45.588;5.288;2022-07-15T12:17:26;32.30;73.60
32201;DHT22;18701;45.588;5.288;2022-07-15T12:19:52;32.50;73.70
32201;DHT22;18701;45.588;5.288;2022-07-15T12:22:21;32.60;73.10
32201;DHT22;18701;45.588;5.288;2022-07-15T12:24:48;32.40;73.50
32201;DHT22;18701;45.588;5.288;2022-07-15T12:27:19;32.70;74.20
32201;DHT22;18701;45.588;5.288;2022-07-15T12:29:45;32.80;72.70
32201;DHT22;18701;45.588;5.288;2022-07-15T12:32:12;32.60;73.20
32201;DHT22;18701;45.588;5.288;2022-07-15T12:37:21;32.50;72.50
32201;DHT22;18701;45.588;5.288;2022-07-15T12:40:02;32.70;73.70
32201;DHT22;18701;45.588;5.288;2022-07-15T12:42:48;32.80;73.30
32201;DHT22;18701;45.588;5.288;2022-07-15T12:45:16;33.30;73.40
32201;DHT22;18701;45.588;5.288;2022-07-15T12:48:06;33.10;71.60
32201;DHT22;18701;45.588;5.288;2022-07-15T12:50:56;33.00;71.30
32201;DHT22;18701;45.588;5.288;2022-07-15T12:53:24;33.10;71.40
32201;DHT22;18701;45.588;5.288;2022-07-15T12:55:51;33.20;72.20
32201;DHT22;18701;45.588;5.288;2022-07-15T12:58:28;33.20;71.40
32201;DHT22;18701;45.588;5.288;2022-07-15T13:03:34;33.60;71.40
32201;DHT22;18701;45.588;5.288;2022-07-15T13:06:00;33.50;71.30
32201;DHT22;18701;45.588;5.288;2022-07-15T13:08:29;33.40;72.20
32201;DHT22;18701;45.588;5.288;2022-07-15T13:10:58;33.10;70.10
32201;DHT22;18701;45.588;5.288;2022-07-15T13:13:27;33.30;67.40
32201;DHT22;18701;45.588;5.288;2022-07-15T13:15:55;33.90;68.30
32201;DHT22;18701;45.588;5.288;2022-07-15T13:18:22;33.30;68.60
32201;DHT22;18701;45.588;5.288;2022-07-15T13:20:50;33.20;68.50
32201;DHT22;18701;45.588;5.288;2022-07-15T13:23:16;33.50;69.00
32201;DHT22;18701;45.588;5.288;2022-07-15T13:25:42;33.60;69.90
32201;DHT22;18701;45.588;5.288;2022-07-15T13:28:09;33.60;69.70
32201;DHT22;18701;45.588;5.288;2022-07-15T13:30:35;33.60;68.00
32201;DHT22;18701;45.588;5.288;2022-07-15T13:33:01;34.00;68.30
32201;DHT22;18701;45.588;5.288;2022-07-15T13:35:27;33.50;68.10
32201;DHT22;18701;45.588;5.288;2022-07-15T13:37:52;33.70;67.90
32201;DHT22;18701;45.588;5.288;2022-07-15T13:40:18;34.00;68.50
32201;DHT22;18701;45.588;5.288;2022-07-15T13:42:44;33.60;66.30
32201;DHT22;18701;45.588;5.288;2022-07-15T13:45:11;33.50;66.50
32201;DHT22;18701;45.588;5.288;2022-07-15T13:47:38;33.30;67.70
32201;DHT22;18701;45.588;5.288;2022-07-15T13:50:05;33.40;68.20
32201;DHT22;18701;45.588;5.288;2022-07-15T13:52:51;33.70;68.40
32201;DHT22;18701;45.588;5.288;2022-07-15T13:55:18;34.00;69.40
32201;DHT22;18701;45.588;5.288;2022-07-15T13:57:44;34.00;68.00
32201;DHT22;18701;45.588;5.288;2022-07-15T14:00:13;33.70;67.30
32201;DHT22;18701;45.588;5.288;2022-07-15T14:02:40;33.90;66.90
32201;DHT22;18701;45.588;5.288;2022-07-15T14:05:06;34.30;66.60
32201;DHT22;18701;45.588;5.288;2022-07-15T14:07:33;33.70;65.00
32201;DHT22;18701;45.588;5.288;2022-07-15T14:09:59;34.10;64.80
32201;DHT22;18701;45.588;5.288;2022-07-15T14:12:27;33.90;62.20
32201;DHT22;18701;45.588;5.288;2022-07-15T14:14:52;33.80;64.70
32201;DHT22;18701;45.588;5.288;2022-07-15T14:17:18;33.70;66.00
32201;DHT22;18701;45.588;5.288;2022-07-15T14:19:44;34.00;67.50
32201;DHT22;18701;45.588;5.288;2022-07-15T14:22:10;34.00;67.90
32201;DHT22;18701;45.588;5.288;2022-07-15T14:24:36;33.40;68.30
32201;DHT22;18701;45.588;5.288;2022-07-15T14:27:02;34.00;68.80
32201;DHT22;18701;45.588;5.288;2022-07-15T14:29:27;34.10;68.60
32201;DHT22;18701;45.588;5.288;2022-07-15T14:31:53;34.00;69.60
32201;DHT22;18701;45.588;5.288;2022-07-15T14:34:19;34.10;69.20
32201;DHT22;18701;45.588;5.288;2022-07-15T14:36:45;34.40;69.50
32201;DHT22;18701;45.588;5.288;2022-07-15T14:39:10;34.70;69.80
32201;DHT22;18701;45.588;5.288;2022-07-15T14:41:36;34.40;68.70
32201;DHT22;18701;45.588;5.288;2022-07-15T14:44:02;34.50;69.10
32201;DHT22;18701;45.588;5.288;2022-07-15T14:46:28;33.80;70.00
32201;DHT22;18701;45.588;5.288;2022-07-15T14:48:54;33.80;69.80
32201;DHT22;18701;45.588;5.288;2022-07-15T14:51:20;34.40;71.00
32201;DHT22;18701;45.588;5.288;2022-07-15T14:53:46;34.20;70.00
32201;DHT22;18701;45.588;5.288;2022-07-15T14:56:12;34.10;69.50
32201;DHT22;18701;45.588;5.288;2022-07-15T14:58:38;33.90;68.80
32201;DHT22;18701;45.588;5.288;2022-07-15T15:01:03;33.80;69.30
32201;DHT22;18701;45.588;5.288;2022-07-15T15:03:29;33.30;69.60
32201;DHT22;18701;45.588;5.288;2022-07-15T15:05:55;33.70;68.90
32201;DHT22;18701;45.588;5.288;2022-07-15T15:08:22;34.00;68.40
32201;DHT22;18701;45.588;5.288;2022-07-15T15:10:48;34.00;68.70
32201;DHT22;18701;45.588;5.288;2022-07-15T15:13:13;34.30;69.00
32201;DHT22;18701;45.588;5.288;2022-07-15T15:15:39;34.50;68.40
32201;DHT22;18701;45.588;5.288;2022-07-15T15:18:05;34.20;67.80
32201;DHT22;18701;45.588;5.288;2022-07-15T15:20:30;33.60;67.30
32201;DHT22;18701;45.588;5.288;2022-07-15T15:22:56;33.70;67.40
32201;DHT22;18701;45.588;5.288;2022-07-15T15:25:22;33.60;67.40
32201;DHT22;18701;45.588;5.288;2022-07-15T15:28:06;33.50;65.90
32201;DHT22;18701;45.588;5.288;2022-07-15T15:30:33;33.50;66.10
32201;DHT22;18701;45.588;5.288;2022-07-15T15:32:59;33.90;66.70
32201;DHT22;18701;45.588;5.288;2022-07-15T15:35:25;33.60;65.40
32201;DHT22;18701;45.588;5.288;2022-07-15T15:37:50;34.00;66.80
32201;DHT22;18701;45.588;5.288;2022-07-15T15:40:16;33.60;66.40
32201;DHT22;18701;45.588;5.288;2022-07-15T15:42:42;33.70;67.00
32201;DHT22;18701;45.588;5.288;2022-07-15T15:45:09;33.70;67.20
32201;DHT22;18701;45.588;5.288;2022-07-15T15:47:35;33.70;65.70
32201;DHT22;18701;45.588;5.288;2022-07-15T15:50:00;33.50;65.50
32201;DHT22;18701;45.588;5.288;2022-07-15T15:52:26;33.10;65.50
32201;DHT22;18701;45.588;5.288;2022-07-15T15:54:52;33.50;65.90
32201;DHT22;18701;45.588;5.288;2022-07-15T15:57:17;33.60;65.60
32201;DHT22;18701;45.588;5.288;2022-07-15T15:59:43;33.50;66.80
32201;DHT22;18701;45.588;5.288;2022-07-15T16:02:09;33.10;66.90
32201;DHT22;18701;45.588;5.288;2022-07-15T16:04:35;33.30;66.40
32201;DHT22;18701;45.588;5.288;2022-07-15T16:07:02;32.90;67.00
32201;DHT22;18701;45.588;5.288;2022-07-15T16:09:28;32.90;66.50
32201;DHT22;18701;45.588;5.288;2022-07-15T16:11:57;33.20;66.80